| time (UTC) | temp C | wind direction | speed KPH | gust KPH | rain 1hr cm | rain 24hr cm | rain mn cm | humidity % | barometer mb |
| 20260906214554 | 28 | 42 | 16.1 | 27.4 | 0.00 | 0.15 | 0.00 | 43 | 1018.2 |
| 20260906213106 | 29 | 71 | 16.1 | 30.6 | 0.00 | 0.15 | 0.00 | 40 | 1018.4 |
| 20260906211603 | 28 | 63 | 14.5 | 24.1 | 0.00 | 0.15 | 0.00 | 39 | 1018.7 |
| 20260906210109 | 28 | 25 | 16.1 | 30.6 | 0.00 | 0.15 | 0.00 | 37 | 1018.9 |
| 20260906204552 | 29 | 22 | 20.9 | 32.2 | 0.00 | 0.15 | 0.00 | 38 | 1019.0 |
| 20260906203103 | 28 | 90 | 17.7 | 29.0 | 0.00 | 0.15 | 0.00 | 40 | 1019.3 |
| 20260906201634 | 28 | 78 | 19.3 | 27.4 | 0.00 | 0.15 | 0.00 | 40 | 1019.4 |
| 20260906200051 | 28 | 37 | 19.3 | 25.7 | 0.00 | 0.15 | 0.00 | 40 | 1019.4 |
| 20260906194605 | 28 | 53 | 9.7 | 25.7 | 0.00 | 0.15 | 0.00 | 41 | 1019.7 |
| 20260906193055 | 28 | 24 | 8.0 | 25.7 | 0.00 | 0.15 | 0.00 | 43 | 1019.7 |
| 20260906191606 | 27 | 76 | 9.7 | 27.4 | 0.00 | 0.15 | 0.00 | 43 | 1019.9 |
| 20260906190050 | 27 | 57 | 16.1 | 20.9 | 0.00 | 0.15 | 0.00 | 44 | 1020.2 |
| 20260906184601 | 26 | 313 | 12.9 | 22.5 | 0.00 | 0.15 | 0.00 | 44 | 1020.5 |
| 20260906183100 | 26 | 35 | 4.8 | 16.1 | 0.00 | 0.15 | 0.00 | 45 | 1021.0 |
| 20260906181621 | 26 | 10 | 8.0 | 14.5 | 0.00 | 0.15 | 0.00 | 44 | 1021.4 |
| 20260906180107 | 26 | 37 | 1.6 | 11.3 | 0.00 | 0.15 | 0.00 | 47 | 1021.6 |
| 20260906174555 | 25 | 51 | 6.4 | 8.0 | 0.00 | 0.15 | 0.00 | 47 | 1021.9 |
| 20260906173053 | 25 | 275 | 3.2 | 9.7 | 0.00 | 0.15 | 0.00 | 51 | 1021.9 |
| 20260906171603 | 24 | 259 | 4.8 | 9.7 | 0.00 | 0.15 | 0.00 | 51 | 1022.1 |
| 20260906164557 | 22 | 178 | 4.8 | 11.3 | 0.00 | 0.15 | 0.00 | 57 | 1022.3 |
| 20260906163101 | 22 | 252 | 4.8 | 11.3 | 0.00 | 0.15 | 0.00 | 59 | 1022.4 |
| 20260906161556 | 21 | 297 | 3.2 | 11.3 | 0.00 | 0.15 | 0.00 | 63 | 1022.4 |
| 20260906160100 | 21 | 249 | 4.8 | 12.9 | 0.00 | 0.15 | 0.00 | 66 | 1022.3 |
| 20260906154554 | 20 | 249 | 6.4 | 12.9 | 0.00 | 0.15 | 0.00 | 69 | 1022.3 |
| 20260906153053 | 20 | 232 | 6.4 | 12.9 | 0.00 | 0.15 | 0.00 | 71 | 1022.4 |
| 20260906151550 | 19 | 227 | 9.7 | 16.1 | 0.00 | 0.15 | 0.00 | 74 | 1022.3 |
| 20260906150100 | 19 | 242 | 8.0 | 14.5 | 0.00 | 0.15 | 0.00 | 75 | 1022.3 |
| 20260906144554 | 18 | 232 | 6.4 | 16.1 | 0.00 | 0.15 | 0.00 | 78 | 1022.2 |
| 20260906143055 | 17 | 226 | 11.3 | 19.3 | 0.00 | 0.15 | 0.00 | 78 | 1022.1 |
| 20260906141550 | 17 | 234 | 9.7 | 16.1 | 0.00 | 0.15 | 0.00 | 78 | 1022.3 |
| 20260906140106 | 16 | 246 | 9.7 | 16.1 | 0.00 | 0.15 | 0.00 | 75 | 1022.3 |
| 20260906134604 | 16 | 217 | 9.7 | 17.7 | 0.00 | 0.15 | 0.00 | 75 | 1021.8 |
| 20260906133101 | 16 | 218 | 9.7 | 14.5 | 0.00 | 0.15 | 0.00 | 74 | 1021.7 |
| 20260906131551 | 16 | 209 | 11.3 | 14.5 | 0.00 | 0.15 | 0.00 | 73 | 1021.5 |
| 20260906130108 | 15 | 203 | 9.7 | 12.9 | 0.00 | 0.15 | 0.00 | 74 | 1021.5 |
| 20260906124602 | 15 | 213 | 8.0 | 11.3 | 0.00 | 0.15 | 0.00 | 75 | 1021.6 |
| 20260906123058 | 15 | 217 | 8.0 | 12.9 | 0.00 | 0.15 | 0.00 | 73 | 1021.4 |
| 20260906121606 | 16 | 209 | 6.4 | 9.7 | 0.00 | 0.15 | 0.00 | 71 | 1021.4 |
| 20260906120055 | 16 | 214 | 9.7 | 16.1 | 0.00 | 0.15 | 0.00 | 68 | 1021.2 |
| 20260906114614 | 16 | 213 | 9.7 | 11.3 | 0.00 | 0.15 | 0.00 | 69 | 1021.2 |
| 20260906113110 | 16 | 213 | 1.6 | 6.4 | 0.00 | 0.15 | 0.00 | 68 | 1021.2 |
| 20260906111555 | 16 | 215 | 4.8 | 9.7 | 0.00 | 0.15 | 0.00 | 67 | 1021.3 |
| 20260906110053 | 17 | 217 | 9.7 | 9.7 | 0.00 | 0.15 | 0.00 | 65 | 1021.3 |
| 20260906104601 | 17 | 205 | 6.4 | 6.4 | 0.00 | 0.15 | 0.00 | 63 | 1021.3 |
| 20260906103055 | 17 | 0 | 0.0 | 8.0 | 0.00 | 0.15 | 0.00 | 64 | 1021.3 |
| 20260906101554 | 17 | 196 | 1.6 | 3.2 | 0.00 | 0.15 | 0.00 | 62 | 1021.4 |
| 20260906100051 | 18 | 196 | 1.6 | 6.4 | 0.00 | 0.15 | 0.00 | 61 | 1021.2 |
| 20260906094558 | 18 | 213 | 3.2 | 6.4 | 0.00 | 0.15 | 0.00 | 60 | 1021.1 |
| 20260906093056 | 18 | 209 | 4.8 | 8.0 | 0.00 | 0.15 | 0.00 | 60 | 1021.2 |
| 20260906091553 | 17 | 207 | 6.4 | 8.0 | 0.00 | 0.15 | 0.00 | 63 | 1021.1 |
| 20260906090109 | 18 | 238 | 3.2 | 6.4 | 0.00 | 0.15 | 0.00 | 60 | 1020.9 |
| 20260906084554 | 19 | 186 | 3.2 | 3.2 | 0.00 | 0.15 | 0.00 | 59 | 1021.1 |
| 20260906083055 | 18 | 157 | 1.6 | 3.2 | 0.00 | 0.15 | 0.00 | 59 | 1021.2 |
| 20260906081556 | 18 | 0 | 0.0 | 3.2 | 0.00 | 0.15 | 0.00 | 60 | 1021.4 |
| 20260906080051 | 18 | 150 | 1.6 | 4.8 | 0.00 | 0.15 | 0.00 | 63 | 1021.6 |
| 20260906074558 | 19 | 101 | 3.2 | 6.4 | 0.00 | 0.15 | 0.00 | 60 | 1021.2 |
| 20260906073055 | 20 | 161 | 3.2 | 9.7 | 0.00 | 0.15 | 0.00 | 57 | 1021.0 |
| 20260906071556 | 20 | 196 | 0.0 | 4.8 | 0.00 | 0.15 | 0.00 | 58 | 1020.8 |
| 20260906070106 | 20 | 0 | 3.2 | 12.9 | 0.00 | 0.15 | 0.00 | 57 | 1020.8 |
| 20260906064557 | 20 | 199 | 4.8 | 12.9 | 0.00 | 0.15 | 0.00 | 58 | 1020.6 |
| 20260906063055 | 20 | 214 | 4.8 | 9.7 | 0.00 | 0.15 | 0.00 | 58 | 1020.6 |
| 20260906061555 | 20 | 246 | 11.3 | 19.3 | 0.00 | 0.15 | 0.00 | 57 | 1020.8 |
| 20260906060155 | 21 | 227 | 9.7 | 20.9 | 0.13 | 0.15 | 0.00 | 55 | 1021.1 |
| 20260906054604 | 20 | 232 | 4.8 | 9.7 | 0.15 | 0.15 | 0.15 | 61 | 1021.2 |
| 20260906053054 | 20 | 206 | 6.4 | 11.3 | 0.15 | 0.15 | 0.15 | 63 | 1021.1 |
| 20260906051553 | 21 | 242 | 12.9 | 17.7 | 0.15 | 0.15 | 0.15 | 54 | 1020.9 |
| 20260906050115 | 22 | 229 | 6.4 | 8.0 | 0.00 | 0.00 | 0.00 | 47 | 1021.3 |
| 20260906044555 | 23 | 226 | 6.4 | 9.7 | 0.00 | 0.00 | 0.00 | 43 | 1021.3 |
| 20260906043112 | 22 | 234 | 6.4 | 8.0 | 0.00 | 0.00 | 0.00 | 43 | 1021.4 |
| 20260906041552 | 23 | 244 | 3.2 | 8.0 | 0.00 | 0.00 | 0.00 | 40 | 1021.3 |
| 20260906034559 | 25 | 302 | 3.2 | 12.9 | 0.00 | 0.00 | 0.00 | 36 | 1021.6 |
| 20260906033053 | 25 | 11 | 11.3 | 19.3 | 0.00 | 0.00 | 0.00 | 35 | 1021.5 |
| 20260906031611 | 23 | 61 | 12.9 | 19.3 | 0.00 | 0.00 | 0.00 | 39 | 1021.2 |
| 20260906030059 | 24 | 244 | 1.6 | 6.4 | 0.00 | 0.00 | 0.00 | 37 | 1020.3 |
| 20260906024600 | 24 | 285 | 1.6 | 6.4 | 0.00 | 0.00 | 0.00 | 35 | 1020.1 |
| 20260906023107 | 25 | 235 | 3.2 | 11.3 | 0.00 | 0.00 | 0.00 | 37 | 1020.1 |
| 20260906021551 | 25 | 188 | 3.2 | 8.0 | 0.00 | 0.00 | 0.00 | 34 | 1019.7 |
| 20260906014554 | 26 | 179 | 3.2 | 8.0 | 0.00 | 0.00 | 0.00 | 34 | 1019.5 |
| 20260906013053 | 26 | 163 | 3.2 | 9.7 | 0.00 | 0.00 | 0.00 | 35 | 1019.3 |
| 20260906011558 | 27 | 148 | 1.6 | 4.8 | 0.00 | 0.00 | 0.00 | 35 | 1019.2 |
| 20260906010054 | 27 | 135 | 3.2 | 11.3 | 0.00 | 0.00 | 0.00 | 33 | 1019.2 |
| 20260906004557 | 28 | 116 | 6.4 | 11.3 | 0.00 | 0.00 | 0.00 | 31 | 1019.3 |
| 20260906003054 | 28 | 128 | 8.0 | 12.9 | 0.00 | 0.00 | 0.00 | 30 | 1019.3 |
| 20260906001553 | 29 | 113 | 8.0 | 12.9 | 0.00 | 0.00 | 0.00 | 29 | 1019.2 |
| 20260906000101 | 30 | 149 | 8.0 | 16.1 | 0.00 | 0.00 | 0.00 | 28 | 1019.1 |
| 20260905234547 | 30 | 232 | 1.6 | 12.9 | 0.00 | 0.00 | 0.00 | 25 | 1019.2 |
| 20260905233101 | 31 | 178 | 3.2 | 6.4 | 0.00 | 0.00 | 0.00 | 26 | 1019.1 |
| 20260905231610 | 30 | 0 | 0.0 | 11.3 | 0.00 | 0.00 | 0.00 | 24 | 1018.9 |
| 20260905230058 | 30 | 94 | 4.8 | 11.3 | 0.00 | 0.00 | 0.00 | 25 | 1019.2 |
| 20260905224556 | 30 | 152 | 4.8 | 11.3 | 0.00 | 0.00 | 0.00 | 26 | 1019.0 |
| 20260905223056 | 30 | 115 | 3.2 | 12.9 | 0.00 | 0.00 | 0.00 | 25 | 1019.1 |
| 20260905221602 | 30 | 117 | 3.2 | 14.5 | 0.00 | 0.00 | 0.00 | 27 | 1019.1 |
| 20260905220104 | 30 | 130 | 9.7 | 14.5 | 0.00 | 0.00 | 0.00 | 25 | 1019.1 |